sensor_id;sensor_type;location;lat;lon;timestamp;P1;durP1;ratioP1;P2;durP2;ratioP2
62572;SDS011;48626;51.678;5.806;2023-04-07T00:00:57;27.05;;;11.85;;
62572;SDS011;48626;51.678;5.806;2023-04-07T00:03:23;25.05;;;11.38;;
62572;SDS011;48626;51.678;5.806;2023-04-07T00:05:49;22.70;;;11.70;;
62572;SDS011;48626;51.678;5.806;2023-04-07T00:08:15;20.77;;;11.25;;
62572;SDS011;48626;51.678;5.806;2023-04-07T00:10:41;30.77;;;11.70;;
62572;SDS011;48626;51.678;5.806;2023-04-07T00:13:07;20.60;;;10.63;;
62572;SDS011;48626;51.678;5.806;2023-04-07T00:15:32;30.42;;;11.65;;
62572;SDS011;48626;51.678;5.806;2023-04-07T00:17:58;24.63;;;12.15;;
62572;SDS011;48626;51.678;5.806;2023-04-07T00:20:24;24.88;;;10.95;;
62572;SDS011;48626;51.678;5.806;2023-04-07T00:22:49;24.33;;;11.07;;
62572;SDS011;48626;51.678;5.806;2023-04-07T00:25:15;26.35;;;11.75;;
62572;SDS011;48626;51.678;5.806;2023-04-07T00:27:41;25.75;;;11.70;;
62572;SDS011;48626;51.678;5.806;2023-04-07T00:30:07;21.10;;;10.63;;
62572;SDS011;48626;51.678;5.806;2023-04-07T00:32:32;22.92;;;10.35;;
62572;SDS011;48626;51.678;5.806;2023-04-07T00:34:58;24.75;;;10.77;;
62572;SDS011;48626;51.678;5.806;2023-04-07T00:37:24;25.10;;;10.70;;
62572;SDS011;48626;51.678;5.806;2023-04-07T00:39:50;22.65;;;10.75;;
62572;SDS011;48626;51.678;5.806;2023-04-07T00:42:16;22.80;;;11.00;;
62572;SDS011;48626;51.678;5.806;2023-04-07T00:44:42;26.05;;;11.13;;
62572;SDS011;48626;51.678;5.806;2023-04-07T00:47:08;25.25;;;10.82;;
62572;SDS011;48626;51.678;5.806;2023-04-07T00:49:34;21.88;;;10.00;;
62572;SDS011;48626;51.678;5.806;2023-04-07T00:52:01;21.65;;;10.77;;
62572;SDS011;48626;51.678;5.806;2023-04-07T00:54:28;19.25;;;9.77;;
62572;SDS011;48626;51.678;5.806;2023-04-07T00:56:55;21.88;;;9.82;;
62572;SDS011;48626;51.678;5.806;2023-04-07T00:59:21;23.15;;;9.40;;
62572;SDS011;48626;51.678;5.806;2023-04-07T01:01:54;26.27;;;9.07;;
62572;SDS011;48626;51.678;5.806;2023-04-07T01:07:31;18.40;;;9.68;;
62572;SDS011;48626;51.678;5.806;2023-04-07T01:10:04;21.55;;;10.82;;
62572;SDS011;48626;51.678;5.806;2023-04-07T01:15:32;22.95;;;10.90;;
62572;SDS011;48626;51.678;5.806;2023-04-07T01:18:20;23.65;;;11.27;;
62572;SDS011;48626;51.678;5.806;2023-04-07T01:20:47;22.98;;;11.23;;
62572;SDS011;48626;51.678;5.806;2023-04-07T01:23:20;23.63;;;10.48;;
62572;SDS011;48626;51.678;5.806;2023-04-07T01:26:06;20.33;;;10.10;;
62572;SDS011;48626;51.678;5.806;2023-04-07T01:29:02;24.67;;;11.38;;
62572;SDS011;48626;51.678;5.806;2023-04-07T01:31:44;18.02;;;9.43;;
62572;SDS011;48626;51.678;5.806;2023-04-07T01:34:12;28.20;;;9.65;;
62572;SDS011;48626;51.678;5.806;2023-04-07T01:36:39;22.13;;;9.80;;
62572;SDS011;48626;51.678;5.806;2023-04-07T01:39:06;16.27;;;8.80;;
62572;SDS011;48626;51.678;5.806;2023-04-07T01:41:32;22.08;;;9.50;;
62572;SDS011;48626;51.678;5.806;2023-04-07T01:43:59;19.35;;;9.18;;
62572;SDS011;48626;51.678;5.806;2023-04-07T01:46:26;16.30;;;8.68;;
62572;SDS011;48626;51.678;5.806;2023-04-07T01:48:52;16.90;;;8.30;;
62572;SDS011;48626;51.678;5.806;2023-04-07T01:51:19;13.85;;;7.75;;
62572;SDS011;48626;51.678;5.806;2023-04-07T01:53:46;18.27;;;7.80;;
62572;SDS011;48626;51.678;5.806;2023-04-07T01:56:13;20.05;;;7.72;;
62572;SDS011;48626;51.678;5.806;2023-04-07T01:58:38;13.77;;;7.72;;
62572;SDS011;48626;51.678;5.806;2023-04-07T02:01:04;18.70;;;7.68;;
62572;SDS011;48626;51.678;5.806;2023-04-07T02:03:34;18.65;;;7.65;;
62572;SDS011;48626;51.678;5.806;2023-04-07T02:06:06;19.13;;;8.07;;
62572;SDS011;48626;51.678;5.806;2023-04-07T02:08:36;22.20;;;7.43;;
62572;SDS011;48626;51.678;5.806;2023-04-07T02:11:06;13.65;;;7.10;;
62572;SDS011;48626;51.678;5.806;2023-04-07T02:13:34;20.63;;;8.13;;
62572;SDS011;48626;51.678;5.806;2023-04-07T02:16:01;16.35;;;6.85;;
62572;SDS011;48626;51.678;5.806;2023-04-07T02:18:29;19.33;;;6.88;;
62572;SDS011;48626;51.678;5.806;2023-04-07T02:20:56;17.92;;;6.95;;
62572;SDS011;48626;51.678;5.806;2023-04-07T02:23:23;17.70;;;6.47;;
62572;SDS011;48626;51.678;5.806;2023-04-07T02:25:49;15.50;;;6.78;;
62572;SDS011;48626;51.678;5.806;2023-04-07T02:28:15;17.88;;;6.53;;
62572;SDS011;48626;51.678;5.806;2023-04-07T02:30:41;19.30;;;6.32;;
62572;SDS011;48626;51.678;5.806;2023-04-07T02:33:06;14.57;;;6.53;;
62572;SDS011;48626;51.678;5.806;2023-04-07T02:35:32;10.90;;;6.35;;
62572;SDS011;48626;51.678;5.806;2023-04-07T02:37:58;22.92;;;6.75;;
62572;SDS011;48626;51.678;5.806;2023-04-07T02:40:23;13.30;;;5.85;;
62572;SDS011;48626;51.678;5.806;2023-04-07T02:42:49;14.57;;;6.43;;
62572;SDS011;48626;51.678;5.806;2023-04-07T02:45:15;14.48;;;6.03;;
62572;SDS011;48626;51.678;5.806;2023-04-07T02:47:40;16.65;;;7.00;;
62572;SDS011;48626;51.678;5.806;2023-04-07T02:50:06;11.10;;;6.18;;
62572;SDS011;48626;51.678;5.806;2023-04-07T02:52:32;13.75;;;6.40;;
62572;SDS011;48626;51.678;5.806;2023-04-07T02:54:57;13.50;;;6.00;;
62572;SDS011;48626;51.678;5.806;2023-04-07T02:57:23;10.48;;;6.03;;
62572;SDS011;48626;51.678;5.806;2023-04-07T02:59:49;18.55;;;7.07;;
62572;SDS011;48626;51.678;5.806;2023-04-07T03:02:15;13.57;;;6.85;;
62572;SDS011;48626;51.678;5.806;2023-04-07T03:04:40;14.27;;;7.43;;
62572;SDS011;48626;51.678;5.806;2023-04-07T03:07:06;15.48;;;7.70;;
62572;SDS011;48626;51.678;5.806;2023-04-07T03:09:32;18.15;;;7.05;;
62572;SDS011;48626;51.678;5.806;2023-04-07T03:11:57;16.67;;;6.85;;
62572;SDS011;48626;51.678;5.806;2023-04-07T03:14:23;15.32;;;7.47;;
62572;SDS011;48626;51.678;5.806;2023-04-07T03:16:48;16.75;;;7.60;;
62572;SDS011;48626;51.678;5.806;2023-04-07T03:19:14;16.77;;;7.07;;
62572;SDS011;48626;51.678;5.806;2023-04-07T03:21:40;17.02;;;7.95;;
62572;SDS011;48626;51.678;5.806;2023-04-07T03:24:06;17.10;;;7.10;;
62572;SDS011;48626;51.678;5.806;2023-04-07T03:26:32;18.48;;;7.35;;
62572;SDS011;48626;51.678;5.806;2023-04-07T03:28:58;16.25;;;7.85;;
62572;SDS011;48626;51.678;5.806;2023-04-07T03:31:23;21.35;;;7.18;;
62572;SDS011;48626;51.678;5.806;2023-04-07T03:33:49;20.25;;;7.55;;
62572;SDS011;48626;51.678;5.806;2023-04-07T03:36:15;17.92;;;7.57;;
62572;SDS011;48626;51.678;5.806;2023-04-07T03:38:42;18.67;;;7.43;;
62572;SDS011;48626;51.678;5.806;2023-04-07T03:41:08;19.98;;;7.03;;
62572;SDS011;48626;51.678;5.806;2023-04-07T03:43:33;13.85;;;7.63;;
62572;SDS011;48626;51.678;5.806;2023-04-07T03:45:59;15.57;;;7.85;;
62572;SDS011;48626;51.678;5.806;2023-04-07T03:48:25;21.00;;;7.60;;
62572;SDS011;48626;51.678;5.806;2023-04-07T03:50:51;15.32;;;7.00;;
62572;SDS011;48626;51.678;5.806;2023-04-07T03:53:16;16.08;;;7.60;;
62572;SDS011;48626;51.678;5.806;2023-04-07T03:55:43;20.35;;;7.75;;
62572;SDS011;48626;51.678;5.806;2023-04-07T03:58:09;19.42;;;8.13;;
62572;SDS011;48626;51.678;5.806;2023-04-07T04:00:35;14.27;;;7.80;;
62572;SDS011;48626;51.678;5.806;2023-04-07T04:03:01;17.90;;;7.93;;
62572;SDS011;48626;51.678;5.806;2023-04-07T04:05:27;17.88;;;8.13;;
62572;SDS011;48626;51.678;5.806;2023-04-07T04:07:53;21.08;;;8.13;;
62572;SDS011;48626;51.678;5.806;2023-04-07T04:10:19;20.40;;;7.50;;
62572;SDS011;48626;51.678;5.806;2023-04-07T04:12:45;22.02;;;8.00;;
62572;SDS011;48626;51.678;5.806;2023-04-07T04:15:12;16.45;;;7.88;;
62572;SDS011;48626;51.678;5.806;2023-04-07T04:17:38;23.88;;;8.43;;
62572;SDS011;48626;51.678;5.806;2023-04-07T04:20:04;21.13;;;8.00;;
62572;SDS011;48626;51.678;5.806;2023-04-07T04:22:30;22.10;;;8.05;;
62572;SDS011;48626;51.678;5.806;2023-04-07T04:24:56;19.77;;;7.68;;
62572;SDS011;48626;51.678;5.806;2023-04-07T04:27:22;21.13;;;7.97;;
62572;SDS011;48626;51.678;5.806;2023-04-07T04:29:48;27.17;;;7.85;;
62572;SDS011;48626;51.678;5.806;2023-04-07T04:32:14;22.52;;;8.88;;
62572;SDS011;48626;51.678;5.806;2023-04-07T04:34:41;19.75;;;7.63;;
62572;SDS011;48626;51.678;5.806;2023-04-07T04:37:07;13.07;;;6.70;;
62572;SDS011;48626;51.678;5.806;2023-04-07T04:39:33;14.82;;;6.88;;
62572;SDS011;48626;51.678;5.806;2023-04-07T04:41:58;20.85;;;6.93;;
62572;SDS011;48626;51.678;5.806;2023-04-07T04:44:25;15.30;;;6.85;;
62572;SDS011;48626;51.678;5.806;2023-04-07T04:46:50;15.80;;;7.10;;
62572;SDS011;48626;51.678;5.806;2023-04-07T04:49:16;12.43;;;6.28;;
62572;SDS011;48626;51.678;5.806;2023-04-07T04:51:43;19.63;;;7.28;;
62572;SDS011;48626;51.678;5.806;2023-04-07T04:54:09;19.45;;;6.80;;
62572;SDS011;48626;51.678;5.806;2023-04-07T04:56:35;16.08;;;7.20;;
62572;SDS011;48626;51.678;5.806;2023-04-07T04:59:02;28.52;;;9.07;;
62572;SDS011;48626;51.678;5.806;2023-04-07T05:01:28;31.08;;;14.13;;
62572;SDS011;48626;51.678;5.806;2023-04-07T05:03:55;31.73;;;13.70;;
62572;SDS011;48626;51.678;5.806;2023-04-07T05:06:20;26.48;;;11.13;;
62572;SDS011;48626;51.678;5.806;2023-04-07T05:08:46;26.50;;;11.60;;
62572;SDS011;48626;51.678;5.806;2023-04-07T05:11:12;53.22;;;26.13;;
62572;SDS011;48626;51.678;5.806;2023-04-07T05:13:38;36.60;;;16.05;;
62572;SDS011;48626;51.678;5.806;2023-04-07T05:16:04;32.83;;;13.82;;
62572;SDS011;48626;51.678;5.806;2023-04-07T05:18:30;32.05;;;14.57;;
62572;SDS011;48626;51.678;5.806;2023-04-07T05:20:56;23.25;;;10.32;;
62572;SDS011;48626;51.678;5.806;2023-04-07T05:23:21;19.85;;;8.30;;
62572;SDS011;48626;51.678;5.806;2023-04-07T05:25:47;19.73;;;6.80;;
62572;SDS011;48626;51.678;5.806;2023-04-07T05:28:13;19.60;;;7.85;;
62572;SDS011;48626;51.678;5.806;2023-04-07T05:30:38;16.85;;;7.15;;
62572;SDS011;48626;51.678;5.806;2023-04-07T05:33:04;19.70;;;7.35;;
62572;SDS011;48626;51.678;5.806;2023-04-07T05:35:30;19.60;;;7.57;;
62572;SDS011;48626;51.678;5.806;2023-04-07T05:37:56;22.27;;;8.15;;
62572;SDS011;48626;51.678;5.806;2023-04-07T05:40:21;21.48;;;8.98;;
62572;SDS011;48626;51.678;5.806;2023-04-07T05:42:48;32.40;;;9.38;;
62572;SDS011;48626;51.678;5.806;2023-04-07T05:45:13;26.92;;;8.65;;
62572;SDS011;48626;51.678;5.806;2023-04-07T05:47:39;26.65;;;8.80;;
62572;SDS011;48626;51.678;5.806;2023-04-07T05:50:05;30.40;;;9.98;;
62572;SDS011;48626;51.678;5.806;2023-04-07T05:52:31;23.45;;;9.18;;
62572;SDS011;48626;51.678;5.806;2023-04-07T05:54:57;26.33;;;8.48;;
62572;SDS011;48626;51.678;5.806;2023-04-07T05:57:23;22.15;;;10.00;;
62572;SDS011;48626;51.678;5.806;2023-04-07T05:59:48;30.13;;;10.48;;
62572;SDS011;48626;51.678;5.806;2023-04-07T06:02:14;26.48;;;10.13;;
62572;SDS011;48626;51.678;5.806;2023-04-07T06:04:40;31.35;;;12.80;;
62572;SDS011;48626;51.678;5.806;2023-04-07T06:07:05;40.58;;;13.65;;
62572;SDS011;48626;51.678;5.806;2023-04-07T06:09:31;65.60;;;29.27;;
62572;SDS011;48626;51.678;5.806;2023-04-07T06:11:57;32.20;;;13.73;;
62572;SDS011;48626;51.678;5.806;2023-04-07T06:14:23;43.28;;;14.93;;
62572;SDS011;48626;51.678;5.806;2023-04-07T06:16:48;27.35;;;12.40;;
62572;SDS011;48626;51.678;5.806;2023-04-07T06:19:14;41.03;;;15.48;;
62572;SDS011;48626;51.678;5.806;2023-04-07T06:21:40;29.65;;;12.23;;
62572;SDS011;48626;51.678;5.806;2023-04-07T06:24:06;31.52;;;11.70;;
62572;SDS011;48626;51.678;5.806;2023-04-07T06:26:31;20.60;;;10.10;;
62572;SDS011;48626;51.678;5.806;2023-04-07T06:28:57;29.00;;;10.77;;
62572;SDS011;48626;51.678;5.806;2023-04-07T06:31:23;35.67;;;12.30;;
62572;SDS011;48626;51.678;5.806;2023-04-07T06:33:50;31.05;;;10.95;;
62572;SDS011;48626;51.678;5.806;2023-04-07T06:36:16;32.10;;;11.23;;
62572;SDS011;48626;51.678;5.806;2023-04-07T06:38:42;28.98;;;11.35;;
62572;SDS011;48626;51.678;5.806;2023-04-07T06:41:07;42.95;;;11.73;;
62572;SDS011;48626;51.678;5.806;2023-04-07T06:43:41;37.42;;;12.48;;
62572;SDS011;48626;51.678;5.806;2023-04-07T06:46:12;35.92;;;12.00;;
62572;SDS011;48626;51.678;5.806;2023-04-07T06:48:37;33.55;;;11.63;;
62572;SDS011;48626;51.678;5.806;2023-04-07T06:51:03;33.88;;;12.02;;
62572;SDS011;48626;51.678;5.806;2023-04-07T06:53:29;35.38;;;12.05;;
62572;SDS011;48626;51.678;5.806;2023-04-07T06:56:04;37.40;;;13.10;;
62572;SDS011;48626;51.678;5.806;2023-04-07T06:58:34;32.93;;;11.73;;
62572;SDS011;48626;51.678;5.806;2023-04-07T07:01:01;41.85;;;12.65;;
62572;SDS011;48626;51.678;5.806;2023-04-07T07:03:27;32.38;;;12.20;;
62572;SDS011;48626;51.678;5.806;2023-04-07T07:05:54;35.00;;;12.07;;
62572;SDS011;48626;51.678;5.806;2023-04-07T07:08:23;26.17;;;12.18;;
62572;SDS011;48626;51.678;5.806;2023-04-07T07:10:49;30.60;;;12.50;;
62572;SDS011;48626;51.678;5.806;2023-04-07T07:13:15;27.75;;;12.27;;
62572;SDS011;48626;51.678;5.806;2023-04-07T07:15:42;25.30;;;11.77;;
62572;SDS011;48626;51.678;5.806;2023-04-07T07:18:07;41.78;;;11.73;;
62572;SDS011;48626;51.678;5.806;2023-04-07T07:20:33;32.05;;;11.65;;
62572;SDS011;48626;51.678;5.806;2023-04-07T07:22:58;26.60;;;11.30;;
62572;SDS011;48626;51.678;5.806;2023-04-07T07:25:24;32.38;;;11.38;;
62572;SDS011;48626;51.678;5.806;2023-04-07T07:27:53;27.38;;;11.32;;
62572;SDS011;48626;51.678;5.806;2023-04-07T07:30:20;26.73;;;10.57;;
62572;SDS011;48626;51.678;5.806;2023-04-07T07:32:46;28.05;;;10.77;;
62572;SDS011;48626;51.678;5.806;2023-04-07T07:35:12;24.77;;;11.68;;
62572;SDS011;48626;51.678;5.806;2023-04-07T07:37:38;23.50;;;10.35;;
62572;SDS011;48626;51.678;5.806;2023-04-07T07:40:04;27.88;;;11.10;;
62572;SDS011;48626;51.678;5.806;2023-04-07T07:42:30;26.42;;;11.75;;
62572;SDS011;48626;51.678;5.806;2023-04-07T07:44:56;25.63;;;11.63;;
62572;SDS011;48626;51.678;5.806;2023-04-07T07:47:22;29.13;;;12.88;;
62572;SDS011;48626;51.678;5.806;2023-04-07T07:49:49;28.98;;;12.40;;
62572;SDS011;48626;51.678;5.806;2023-04-07T07:52:15;25.30;;;12.07;;
62572;SDS011;48626;51.678;5.806;2023-04-07T07:54:41;35.85;;;12.65;;
62572;SDS011;48626;51.678;5.806;2023-04-07T07:57:07;29.52;;;13.18;;
62572;SDS011;48626;51.678;5.806;2023-04-07T07:59:33;32.17;;;13.60;;
62572;SDS011;48626;51.678;5.806;2023-04-07T08:01:58;30.92;;;14.07;;
62572;SDS011;48626;51.678;5.806;2023-04-07T08:04:24;27.67;;;12.07;;
62572;SDS011;48626;51.678;5.806;2023-04-07T08:06:50;27.98;;;14.18;;
62572;SDS011;48626;51.678;5.806;2023-04-07T08:09:17;29.73;;;13.60;;
62572;SDS011;48626;51.678;5.806;2023-04-07T08:11:43;27.98;;;13.23;;
62572;SDS011;48626;51.678;5.806;2023-04-07T08:14:09;29.42;;;13.50;;
62572;SDS011;48626;51.678;5.806;2023-04-07T08:16:35;35.88;;;13.27;;
62572;SDS011;48626;51.678;5.806;2023-04-07T08:19:01;24.50;;;12.48;;
62572;SDS011;48626;51.678;5.806;2023-04-07T08:21:27;21.85;;;10.73;;
62572;SDS011;48626;51.678;5.806;2023-04-07T08:23:53;17.83;;;9.65;;
62572;SDS011;48626;51.678;5.806;2023-04-07T08:26:19;21.38;;;8.95;;
62572;SDS011;48626;51.678;5.806;2023-04-07T08:28:45;18.63;;;7.43;;
62572;SDS011;48626;51.678;5.806;2023-04-07T08:31:11;15.10;;;7.93;;
62572;SDS011;48626;51.678;5.806;2023-04-07T08:33:37;16.08;;;7.93;;
62572;SDS011;48626;51.678;5.806;2023-04-07T08:36:03;21.10;;;7.60;;
62572;SDS011;48626;51.678;5.806;2023-04-07T08:38:29;25.23;;;8.20;;
62572;SDS011;48626;51.678;5.806;2023-04-07T08:41:09;21.92;;;8.63;;
62572;SDS011;48626;51.678;5.806;2023-04-07T08:43:36;21.60;;;8.38;;
62572;SDS011;48626;51.678;5.806;2023-04-07T08:46:03;20.65;;;10.35;;
62572;SDS011;48626;51.678;5.806;2023-04-07T08:48:30;20.33;;;9.13;;
62572;SDS011;48626;51.678;5.806;2023-04-07T08:51:03;22.55;;;9.35;;
62572;SDS011;48626;51.678;5.806;2023-04-07T08:53:34;19.05;;;9.85;;
62572;SDS011;48626;51.678;5.806;2023-04-07T08:56:20;21.77;;;10.73;;
62572;SDS011;48626;51.678;5.806;2023-04-07T08:58:47;25.45;;;10.48;;
62572;SDS011;48626;51.678;5.806;2023-04-07T09:01:13;19.02;;;9.77;;
62572;SDS011;48626;51.678;5.806;2023-04-07T09:03:40;23.70;;;10.50;;
62572;SDS011;48626;51.678;5.806;2023-04-07T09:06:08;22.58;;;10.52;;
62572;SDS011;48626;51.678;5.806;2023-04-07T09:08:35;18.77;;;10.60;;
62572;SDS011;48626;51.678;5.806;2023-04-07T09:11:01;23.13;;;10.60;;
62572;SDS011;48626;51.678;5.806;2023-04-07T09:13:27;21.92;;;10.50;;
62572;SDS011;48626;51.678;5.806;2023-04-07T09:15:52;41.70;;;12.10;;
62572;SDS011;48626;51.678;5.806;2023-04-07T09:18:18;22.75;;;9.93;;
62572;SDS011;48626;51.678;5.806;2023-04-07T09:20:54;25.88;;;10.48;;
62572;SDS011;48626;51.678;5.806;2023-04-07T09:23:29;18.50;;;8.63;;
62572;SDS011;48626;51.678;5.806;2023-04-07T09:25:55;19.02;;;8.90;;
62572;SDS011;48626;51.678;5.806;2023-04-07T09:28:23;17.55;;;8.68;;
62572;SDS011;48626;51.678;5.806;2023-04-07T09:30:53;18.13;;;9.35;;
62572;SDS011;48626;51.678;5.806;2023-04-07T09:33:29;19.42;;;9.48;;
62572;SDS011;48626;51.678;5.806;2023-04-07T09:35:55;17.63;;;8.30;;
62572;SDS011;48626;51.678;5.806;2023-04-07T09:38:20;16.50;;;8.30;;
62572;SDS011;48626;51.678;5.806;2023-04-07T09:40:46;20.63;;;8.45;;
62572;SDS011;48626;51.678;5.806;2023-04-07T09:43:16;18.52;;;8.63;;
62572;SDS011;48626;51.678;5.806;2023-04-07T09:45:43;20.15;;;9.27;;
62572;SDS011;48626;51.678;5.806;2023-04-07T09:48:19;17.90;;;9.75;;
62572;SDS011;48626;51.678;5.806;2023-04-07T09:50:46;20.10;;;10.48;;
62572;SDS011;48626;51.678;5.806;2023-04-07T09:53:16;25.67;;;9.45;;
62572;SDS011;48626;51.678;5.806;2023-04-07T09:55:43;17.52;;;8.63;;
62572;SDS011;48626;51.678;5.806;2023-04-07T09:58:11;18.17;;;8.93;;
62572;SDS011;48626;51.678;5.806;2023-04-07T10:03:06;25.02;;;9.35;;
62572;SDS011;48626;51.678;5.806;2023-04-07T10:05:33;18.63;;;9.20;;
62572;SDS011;48626;51.678;5.806;2023-04-07T10:08:00;19.83;;;9.48;;
62572;SDS011;48626;51.678;5.806;2023-04-07T10:10:26;26.35;;;10.52;;
62572;SDS011;48626;51.678;5.806;2023-04-07T10:12:55;22.55;;;9.55;;
62572;SDS011;48626;51.678;5.806;2023-04-07T10:15:22;16.45;;;9.20;;
62572;SDS011;48626;51.678;5.806;2023-04-07T10:17:49;20.17;;;9.20;;
62572;SDS011;48626;51.678;5.806;2023-04-07T10:20:18;19.52;;;9.45;;
62572;SDS011;48626;51.678;5.806;2023-04-07T10:22:48;22.50;;;9.10;;
62572;SDS011;48626;51.678;5.806;2023-04-07T10:25:15;23.27;;;8.82;;
62572;SDS011;48626;51.678;5.806;2023-04-07T10:30:18;20.73;;;8.88;;
62572;SDS011;48626;51.678;5.806;2023-04-07T10:32:49;19.42;;;8.38;;
62572;SDS011;48626;51.678;5.806;2023-04-07T10:35:15;18.23;;;9.95;;
62572;SDS011;48626;51.678;5.806;2023-04-07T10:38:08;23.20;;;9.88;;
62572;SDS011;48626;51.678;5.806;2023-04-07T10:40:38;18.25;;;9.45;;
62572;SDS011;48626;51.678;5.806;2023-04-07T10:43:05;19.67;;;9.10;;
62572;SDS011;48626;51.678;5.806;2023-04-07T10:48:13;14.13;;;8.25;;
62572;SDS011;48626;51.678;5.806;2023-04-07T10:50:43;24.77;;;8.73;;
62572;SDS011;48626;51.678;5.806;2023-04-07T10:53:10;20.65;;;8.52;;
62572;SDS011;48626;51.678;5.806;2023-04-07T10:55:37;19.63;;;8.10;;
62572;SDS011;48626;51.678;5.806;2023-04-07T11:00:42;17.88;;;6.78;;
62572;SDS011;48626;51.678;5.806;2023-04-07T11:03:29;15.35;;;5.78;;
62572;SDS011;48626;51.678;5.806;2023-04-07T11:08:35;15.43;;;5.00;;
62572;SDS011;48626;51.678;5.806;2023-04-07T11:11:06;9.90;;;4.60;;
62572;SDS011;48626;51.678;5.806;2023-04-07T11:13:49;12.63;;;4.25;;
62572;SDS011;48626;51.678;5.806;2023-04-07T11:16:18;17.17;;;4.97;;
62572;SDS011;48626;51.678;5.806;2023-04-07T11:18:58;14.85;;;4.20;;
62572;SDS011;48626;51.678;5.806;2023-04-07T11:21:24;16.58;;;4.57;;
62572;SDS011;48626;51.678;5.806;2023-04-07T11:23:49;11.00;;;4.03;;
62572;SDS011;48626;51.678;5.806;2023-04-07T11:26:15;11.10;;;4.07;;
62572;SDS011;48626;51.678;5.806;2023-04-07T11:28:45;13.15;;;3.92;;
62572;SDS011;48626;51.678;5.806;2023-04-07T11:31:21;12.88;;;4.35;;
62572;SDS011;48626;51.678;5.806;2023-04-07T11:33:55;13.27;;;4.47;;
62572;SDS011;48626;51.678;5.806;2023-04-07T11:36:39;9.70;;;4.25;;
62572;SDS011;48626;51.678;5.806;2023-04-07T11:39:16;14.75;;;4.88;;
62572;SDS011;48626;51.678;5.806;2023-04-07T11:41:45;12.63;;;4.78;;
62572;SDS011;48626;51.678;5.806;2023-04-07T11:44:12;13.18;;;4.15;;
62572;SDS011;48626;51.678;5.806;2023-04-07T11:46:57;14.60;;;4.75;;
62572;SDS011;48626;51.678;5.806;2023-04-07T11:49:24;13.27;;;4.80;;
62572;SDS011;48626;51.678;5.806;2023-04-07T11:52:05;13.75;;;4.43;;
62572;SDS011;48626;51.678;5.806;2023-04-07T11:57:27;11.98;;;4.18;;
62572;SDS011;48626;51.678;5.806;2023-04-07T12:00:09;14.32;;;4.55;;
62572;SDS011;48626;51.678;5.806;2023-04-07T12:02:36;15.05;;;4.22;;
62572;SDS011;48626;51.678;5.806;2023-04-07T12:05:03;11.02;;;4.03;;
62572;SDS011;48626;51.678;5.806;2023-04-07T12:07:29;17.08;;;4.53;;
62572;SDS011;48626;51.678;5.806;2023-04-07T12:09:55;12.63;;;4.30;;
62572;SDS011;48626;51.678;5.806;2023-04-07T12:12:29;11.93;;;4.18;;
62572;SDS011;48626;51.678;5.806;2023-04-07T12:14:57;14.38;;;4.68;;
62572;SDS011;48626;51.678;5.806;2023-04-07T12:17:23;16.17;;;4.50;;
62572;SDS011;48626;51.678;5.806;2023-04-07T12:19:50;12.73;;;4.50;;
62572;SDS011;48626;51.678;5.806;2023-04-07T12:22:17;14.50;;;4.82;;
62572;SDS011;48626;51.678;5.806;2023-04-07T12:24:43;13.85;;;4.97;;
62572;SDS011;48626;51.678;5.806;2023-04-07T12:27:09;17.02;;;4.72;;
62572;SDS011;48626;51.678;5.806;2023-04-07T12:29:35;12.90;;;4.75;;
62572;SDS011;48626;51.678;5.806;2023-04-07T12:32:02;12.43;;;4.82;;
62572;SDS011;48626;51.678;5.806;2023-04-07T12:34:30;19.92;;;5.22;;
62572;SDS011;48626;51.678;5.806;2023-04-07T12:36:56;12.80;;;3.92;;
62572;SDS011;48626;51.678;5.806;2023-04-07T12:39:21;12.70;;;4.50;;
62572;SDS011;48626;51.678;5.806;2023-04-07T12:41:47;13.75;;;4.72;;
62572;SDS011;48626;51.678;5.806;2023-04-07T12:44:14;14.57;;;4.68;;
62572;SDS011;48626;51.678;5.806;2023-04-07T12:46:40;14.05;;;4.35;;
62572;SDS011;48626;51.678;5.806;2023-04-07T12:49:07;16.08;;;3.95;;
62572;SDS011;48626;51.678;5.806;2023-04-07T12:51:32;16.30;;;4.88;;
62572;SDS011;48626;51.678;5.806;2023-04-07T12:53:58;13.02;;;5.03;;
62572;SDS011;48626;51.678;5.806;2023-04-07T12:56:27;11.50;;;5.18;;
62572;SDS011;48626;51.678;5.806;2023-04-07T12:58:53;11.75;;;5.05;;
62572;SDS011;48626;51.678;5.806;2023-04-07T13:01:19;15.45;;;4.80;;
62572;SDS011;48626;51.678;5.806;2023-04-07T13:03:45;24.38;;;5.38;;
62572;SDS011;48626;51.678;5.806;2023-04-07T13:06:11;13.00;;;5.18;;
62572;SDS011;48626;51.678;5.806;2023-04-07T13:08:37;13.65;;;4.97;;
62572;SDS011;48626;51.678;5.806;2023-04-07T13:11:06;18.30;;;5.72;;
62572;SDS011;48626;51.678;5.806;2023-04-07T13:13:32;16.67;;;5.68;;
62572;SDS011;48626;51.678;5.806;2023-04-07T13:15:58;15.27;;;5.68;;
62572;SDS011;48626;51.678;5.806;2023-04-07T13:18:24;18.88;;;5.47;;
62572;SDS011;48626;51.678;5.806;2023-04-07T13:20:50;16.20;;;6.18;;
62572;SDS011;48626;51.678;5.806;2023-04-07T13:23:16;15.52;;;5.70;;
62572;SDS011;48626;51.678;5.806;2023-04-07T13:25:42;12.38;;;5.05;;
62572;SDS011;48626;51.678;5.806;2023-04-07T13:28:07;11.02;;;4.88;;
62572;SDS011;48626;51.678;5.806;2023-04-07T13:30:33;15.88;;;5.60;;
62572;SDS011;48626;51.678;5.806;2023-04-07T13:32:59;17.23;;;5.28;;
62572;SDS011;48626;51.678;5.806;2023-04-07T13:35:25;13.02;;;4.95;;
62572;SDS011;48626;51.678;5.806;2023-04-07T13:37:50;14.68;;;4.85;;
62572;SDS011;48626;51.678;5.806;2023-04-07T13:40:16;11.85;;;4.32;;
62572;SDS011;48626;51.678;5.806;2023-04-07T13:42:42;13.85;;;4.80;;
62572;SDS011;48626;51.678;5.806;2023-04-07T13:45:08;18.20;;;5.50;;
62572;SDS011;48626;51.678;5.806;2023-04-07T13:47:34;13.55;;;4.85;;
62572;SDS011;48626;51.678;5.806;2023-04-07T13:50:00;16.67;;;4.88;;
62572;SDS011;48626;51.678;5.806;2023-04-07T13:52:27;16.27;;;5.65;;
62572;SDS011;48626;51.678;5.806;2023-04-07T13:54:53;13.57;;;4.78;;
62572;SDS011;48626;51.678;5.806;2023-04-07T13:57:19;17.50;;;5.78;;
62572;SDS011;48626;51.678;5.806;2023-04-07T13:59:49;14.43;;;5.93;;
62572;SDS011;48626;51.678;5.806;2023-04-07T14:02:18;13.50;;;4.88;;
62572;SDS011;48626;51.678;5.806;2023-04-07T14:04:45;15.90;;;5.28;;
62572;SDS011;48626;51.678;5.806;2023-04-07T14:07:11;16.42;;;4.97;;
62572;SDS011;48626;51.678;5.806;2023-04-07T14:09:37;12.18;;;5.40;;
62572;SDS011;48626;51.678;5.806;2023-04-07T14:12:03;14.57;;;4.82;;
62572;SDS011;48626;51.678;5.806;2023-04-07T14:14:29;11.95;;;5.63;;
62572;SDS011;48626;51.678;5.806;2023-04-07T14:16:55;12.57;;;4.55;;
62572;SDS011;48626;51.678;5.806;2023-04-07T14:19:21;17.38;;;5.22;;
62572;SDS011;48626;51.678;5.806;2023-04-07T14:21:48;15.50;;;4.38;;
62572;SDS011;48626;51.678;5.806;2023-04-07T14:24:16;11.25;;;4.43;;
62572;SDS011;48626;51.678;5.806;2023-04-07T14:26:43;18.33;;;5.30;;
62572;SDS011;48626;51.678;5.806;2023-04-07T14:29:10;27.45;;;5.95;;
62572;SDS011;48626;51.678;5.806;2023-04-07T14:31:37;15.55;;;4.75;;
62572;SDS011;48626;51.678;5.806;2023-04-07T14:34:03;18.98;;;5.88;;
62572;SDS011;48626;51.678;5.806;2023-04-07T14:36:29;20.30;;;5.60;;
62572;SDS011;48626;51.678;5.806;2023-04-07T14:38:55;15.65;;;4.25;;
62572;SDS011;48626;51.678;5.806;2023-04-07T14:41:23;10.65;;;4.85;;
62572;SDS011;48626;51.678;5.806;2023-04-07T14:43:49;15.93;;;4.80;;
62572;SDS011;48626;51.678;5.806;2023-04-07T14:46:20;17.30;;;4.75;;
62572;SDS011;48626;51.678;5.806;2023-04-07T14:48:47;13.30;;;4.25;;
62572;SDS011;48626;51.678;5.806;2023-04-07T14:51:13;19.35;;;6.00;;
62572;SDS011;48626;51.678;5.806;2023-04-07T14:53:39;22.02;;;5.95;;